createdAt,value
2023-05-07T00:04:02.194Z,12.5
2023-05-07T00:19:12.803Z,12.4
2023-05-07T00:34:23.949Z,12.1
2023-05-07T00:49:34.272Z,12
2023-05-07T01:04:44.448Z,11.9
2023-05-07T01:19:55.502Z,11.9
2023-05-07T01:35:06.263Z,11.9
2023-05-07T01:50:15.538Z,11.7
2023-05-07T02:05:25.326Z,11.7
2023-05-07T02:20:35.293Z,11.7
2023-05-07T02:35:45.491Z,11.7
2023-05-07T02:50:55.531Z,11.7
2023-05-07T03:06:05.117Z,11.6
2023-05-07T03:21:14.960Z,11.7
2023-05-07T03:36:25.371Z,11.6
2023-05-07T03:51:35.106Z,11.6
2023-05-07T04:06:45.640Z,11.5
2023-05-07T04:21:55.311Z,11.5
2023-05-07T04:37:04.649Z,11.4
2023-05-07T04:52:14.798Z,11.4
2023-05-07T05:07:24.839Z,11.5
2023-05-07T05:22:35.669Z,11.5
2023-05-07T05:37:46.492Z,11.5
2023-05-07T05:52:56.431Z,11.4
2023-05-07T06:08:06.815Z,11.4
2023-05-07T06:23:18.141Z,11.4
2023-05-07T06:38:28.764Z,11.5
2023-05-07T06:53:39.104Z,11.7
2023-05-07T07:08:49.297Z,11.9
2023-05-07T07:23:59.887Z,12
2023-05-07T07:39:09.583Z,12.1
2023-05-07T07:54:20.303Z,12.5
2023-05-07T08:09:30.322Z,12.8
2023-05-07T08:24:40.375Z,13.1
2023-05-07T08:39:50.530Z,13.2
2023-05-07T08:55:00.731Z,13.3
2023-05-07T09:10:11.379Z,13.2
2023-05-07T09:25:22.839Z,13.3
2023-05-07T09:40:33.571Z,13.3
2023-05-07T09:55:43.396Z,13.2
2023-05-07T10:10:54.970Z,13.2
2023-05-07T10:26:04.904Z,13.4
2023-05-07T10:41:15.097Z,13.8
2023-05-07T10:56:26.297Z,14.1
2023-05-07T11:11:36.697Z,14.4
2023-05-07T11:26:47.209Z,14.6
2023-05-07T11:41:57.458Z,15
2023-05-07T11:57:08.003Z,15.3
2023-05-07T12:12:17.965Z,15.6
2023-05-07T12:27:28.408Z,15.7
2023-05-07T12:42:38.433Z,16
2023-05-07T12:57:48.249Z,16.1
2023-05-07T13:12:58.435Z,16.4
2023-05-07T13:28:11.087Z,17.1
2023-05-07T13:43:25.615Z,18
2023-05-07T13:58:40.227Z,19.4
2023-05-07T14:14:11.564Z,20.1
2023-05-07T14:29:23.731Z,20
2023-05-07T14:44:33.465Z,19.5
2023-05-07T14:59:43.780Z,20.4
2023-05-07T15:14:54.517Z,21.3
2023-05-07T15:30:04.061Z,21.3
2023-05-07T15:45:13.618Z,20.1
2023-05-07T16:00:26.164Z,19.9
2023-05-07T16:15:36.178Z,19.6
2023-05-07T16:30:46.615Z,19.8
2023-05-07T16:45:55.501Z,18
2023-05-07T17:01:04.793Z,16.9
2023-05-07T17:16:14.037Z,16.3
2023-05-07T17:31:26.688Z,15.9
2023-05-07T17:46:36.823Z,15.3
2023-05-07T18:01:46.164Z,14.9
2023-05-07T18:16:56.465Z,14.7
2023-05-07T18:32:05.836Z,14.5
2023-05-07T18:47:15.880Z,14.2
2023-05-07T19:02:25.768Z,14
2023-05-07T19:17:35.429Z,13.8
2023-05-07T19:32:45.556Z,13.6
2023-05-07T19:47:55.432Z,13.5
2023-05-07T20:03:05.747Z,13.4
2023-05-07T20:18:16.065Z,13.3
2023-05-07T20:33:26.688Z,13.2
2023-05-07T20:48:36.006Z,13.1
2023-05-07T21:03:45.526Z,12.9
2023-05-07T21:18:55.088Z,12.8
2023-05-07T21:34:04.733Z,12.7
2023-05-07T21:49:14.273Z,12.6
2023-05-07T22:04:26.574Z,12.5
2023-05-07T22:19:36.496Z,12.3
2023-05-07T22:34:46.254Z,12.1
2023-05-07T22:49:55.875Z,12
2023-05-07T23:05:05.568Z,12
2023-05-07T23:20:15.235Z,11.8
2023-05-07T23:35:26.823Z,11.7
2023-05-07T23:50:36.114Z,11.6
